Chickamauga, Tennessee
Current Conditions -  °F | °C
As of 9:53 PM on Monday 26 Jan 2015 (Local Time) from KCHA Reporting Station
Light Snow Light Snow  
Wind Chill: 35°   Ceiling: 6000
Heat Index: 35°   Visibility: 10mi
Dew Point: 30°   Wind: 0mph
Humidity: 82%   Direction: NA
Pressure: 29.98"   Gusts: NA
Location:  35.0457°N, 85.3094°W
Report Text: KCHA 270253Z 00000KT 10SM -SN FEW035 BKN060 OVC080 02/M01 A2998 RMK AO2 SLP155 P0000 60000 T00171011 55000
Loading
Personal Weather Stations






























Interactive Weather Map New forecast layout! Learn more

10-Day Weather Forecast

Advertisements
Track Severe Weather on mobile